Time;durP1;ratioP1;P1;durP2;ratioP2;P2;SDS_P1;SDS_P2;PMS_P1;PMS_P2;Temp;Humidity;BMP_temperature;BMP_pressure;BME280_temperature;BME280_humidity;BME280_pressure;Samples;Min_cycle;Max_cycle;Signal;HPM_P1;HPM_P2
2023/12/13 00:01:47;;;;;;;83.90;62.90;;;;;;;4.95;100.00;99355.84;112681;1234;22551;-77
2023/12/13 00:04:30;;;;;;;83.40;61.70;;;;;;;4.92;100.00;99358.52;113449;1233;21949;-77
2023/12/13 00:07:22;;;;;;;77.80;59.00;;;;;;;4.88;100.00;99352.45;113382;1233;23066;-76
2023/12/13 00:10:08;;;;;;;79.50;59.70;;;;;;;4.85;100.00;99355.10;113203;1234;23677;-76
2023/12/13 00:12:47;;;;;;;;;;;;;;;4.84;100.00;99355.83;112948;1239;21926;-80
2023/12/13 00:15:29;;;;;;;78.30;58.50;;;;;;;4.73;100.00;99354.10;112750;1239;22023;-78
2023/12/13 00:18:02;;;;;;;76.80;57.20;;;;;;;4.61;100.00;99343.08;112890;1239;22829;-79
2023/12/13 00:20:35;;;;;;;80.80;59.40;;;;;;;4.58;100.00;99342.13;112920;1239;21970;-78
2023/12/13 00:23:12;;;;;;;90.00;64.70;;;;;;;4.62;100.00;99348.21;112772;1239;21975;-80
2023/12/13 00:25:50;;;;;;;85.50;63.40;;;;;;;4.57;100.00;99346.98;112792;1239;21924;-78
2023/12/13 00:28:32;;;;;;;86.20;63.90;;;;;;;4.42;100.00;99329.83;112304;1245;22396;-79
2023/12/13 00:31:25;;;;;;;87.70;63.30;;;;;;;4.45;100.00;99338.87;112408;1232;21937;-78
2023/12/13 00:34:12;;;;;;;;;;;;;;;;;;;;;
2023/12/13 00:37:10;;;;;;;82.10;60.90;;;;;;;4.28;100.00;99325.42;112041;1242;23014;-78
2023/12/13 00:40:07;;;;;;;85.30;59.90;;;;;;;4.09;100.00;99309.59;111011;1254;23749;-78
2023/12/13 00:43:05;;;;;;;76.70;56.70;;;;;;;4.15;100.00;99321.50;111097;1254;22042;-80
2023/12/13 00:45:58;;;;;;;76.30;57.30;;;;;;;4.09;100.00;99315.96;111272;1248;22746;-79
2023/12/13 00:48:36;;;;;;;72.70;55.70;;;;;;;4.07;100.00;99310.16;111707;1248;22220;-78
2023/12/13 00:51:25;;;;;;;79.40;58.20;;;;;;;4.06;100.00;99308.98;111290;1246;24058;-78
2023/12/13 00:54:49;;;;;;;80.40;56.50;;;;;;;4.06;100.00;99316.55;112275;1246;21982;-81
2023/12/13 00:58:25;;;;;;;81.10;60.70;;;;;;;4.00;100.00;99315.55;111544;1251;21959;-79
2023/12/13 01:07:01;;;;;;;76.30;57.50;;;;;;;3.88;100.00;99323.77;110195;1267;21998;-80
2023/12/13 01:10:07;;;;;;;;;;;;;;;;;;;;;
2023/12/13 01:16:31;;;;;;;;;;;;;;;;;;;;;
2023/12/13 01:19:07;;;;;;;74.90;56.20;;;;;;;3.95;100.00;99296.90;109816;1267;22816;-79
2023/12/13 01:43:43;;;;;;;60.30;47.20;;;;;;;5.51;100.00;99283.77;108121;1288;550059;-76
2023/12/13 01:46:18;;;;;;;57.90;47.40;;;;;;;5.79;100.00;99281.50;105714;1260;5087538;-77
2023/12/13 01:49:06;;;;;;;;;;;;;;;;;;;;;
2023/12/13 01:51:47;;;;;;;65.40;51.60;;;;;;;4.87;100.00;99283.85;110915;1257;21961;-76
2023/12/13 01:54:26;;;;;;;63.40;52.60;;;;;;;4.64;100.00;99284.75;110881;1246;21963;-76
2023/12/13 01:57:08;;;;;;;65.30;53.90;;;;;;;4.51;100.00;99280.11;110940;1257;22023;-77
2023/12/13 02:00:16;;;;;;;64.90;53.40;;;;;;;4.48;100.00;99283.31;110828;1257;23609;-76
2023/12/13 02:03:22;;;;;;;73.10;53.70;;;;;;;4.47;100.00;99287.85;110672;1257;22966;-79
2023/12/13 02:05:57;;;;;;;72.60;55.50;;;;;;;4.40;100.00;99283.40;110921;1257;22715;-80
2023/12/13 02:08:39;;;;;;;;;;;;;;;4.36;100.00;99275.95;110287;1264;22091;-78
2023/12/13 02:11:23;;;;;;;72.00;52.10;;;;;;;4.26;100.00;99274.67;110469;1264;21983;-79
2023/12/13 02:14:08;;;;;;;73.70;53.80;;;;;;;4.27;100.00;99272.40;109768;1270;23004;-79
2023/12/13 02:16:57;;;;;;;70.20;52.60;;;;;;;4.29;100.00;99272.02;109818;1270;23095;-78
2023/12/13 02:19:39;;;;;;;64.10;51.10;;;;;;;4.33;100.00;99267.08;109843;1269;21999;-79
2023/12/13 02:22:16;;;;;;;59.30;49.30;;;;;;;4.37;100.00;99264.89;109828;1269;23067;-77
2023/12/13 02:25:42;;;;;;;;;;;;;;;;;;;;;
2023/12/13 02:28:27;;;;;;;53.10;44.70;;;;;;;4.36;100.00;99256.14;110337;1264;21995;-79
2023/12/13 02:31:11;;;;;;;54.10;45.70;;;;;;;4.32;100.00;99249.00;110386;1263;21982;-77
2023/12/13 02:33:58;;;;;;;58.90;46.80;;;;;;;4.31;100.00;99242.68;111116;1256;22801;-79
2023/12/13 02:36:29;;;;;;;60.20;45.80;;;;;;;4.26;100.00;99244.02;110752;1260;22441;-78
2023/12/13 02:39:07;;;;;;;50.90;44.90;;;;;;;4.26;100.00;99241.79;110766;1260;23619;-80
2023/12/13 02:41:44;;;;;;;57.30;45.30;;;;;;;4.26;100.00;99241.59;110895;1260;21967;-78
2023/12/13 02:44:35;;;;;;;56.70;42.60;;;;;;;4.28;100.00;99244.98;110679;1260;21970;-77
2023/12/13 02:47:26;;;;;;;56.70;44.90;;;;;;;4.30;100.00;99245.30;110714;1260;22084;-80
2023/12/13 02:50:09;;;;;;;56.10;45.00;;;;;;;4.30;100.00;99237.36;110778;1260;21999;-79
2023/12/13 02:52:54;;;;;;;;;;;;;;;;;;;;;
2023/12/13 02:55:43;;;;;;;55.90;44.50;;;;;;;4.25;100.00;99232.86;109853;1268;21994;-79
2023/12/13 02:58:26;;;;;;;59.20;47.80;;;;;;;4.20;100.00;99234.05;109141;1274;21979;-79
2023/12/13 03:01:21;;;;;;;57.80;46.90;;;;;;;4.14;100.00;99224.23;108663;1280;22004;-79
2023/12/13 03:03:59;;;;;;;57.30;44.90;;;;;;;4.09;100.00;99220.06;108750;1280;22067;-78
2023/12/13 03:06:38;;;;;;;54.50;44.40;;;;;;;4.06;100.00;99226.19;108467;1286;22002;-78
2023/12/13 03:09:27;;;;;;;57.90;48.10;;;;;;;4.08;100.00;99227.16;108441;1286;22076;-79
2023/12/13 03:12:11;;;;;;;57.90;46.60;;;;;;;4.10;100.00;99230.02;108790;1280;23073;-79
2023/12/13 03:14:42;;;;;;;58.10;45.60;;;;;;;4.15;100.00;99225.92;108627;1280;21999;-76
2023/12/13 03:17:20;;;;;;;59.60;47.00;;;;;;;4.19;100.00;99222.69;109017;1274;21982;-77
2023/12/13 03:19:59;;;;;;;55.80;48.40;;;;;;;4.20;100.00;99223.37;109615;1267;21959;-78
2023/12/13 03:22:35;;;;;;;60.70;47.40;;;;;;;4.19;100.00;99226.98;109045;1273;22028;-76
2023/12/13 03:25:17;;;;;;;58.10;46.70;;;;;;;4.23;100.00;99221.70;109265;1268;21981;-77
2023/12/13 03:27:55;;;;;;;54.10;45.20;;;;;;;4.30;100.00;99218.95;110102;1268;21988;-78
2023/12/13 03:30:41;;;;;;;58.30;45.10;;;;;;;4.32;100.00;99209.23;109503;1268;23063;-76
2023/12/13 03:33:16;;;;;;;59.00;45.20;;;;;;;4.30;100.00;99201.54;109933;1268;21975;-77
2023/12/13 03:35:54;;;;;;;52.60;45.60;;;;;;;4.26;100.00;99201.83;109373;1271;23038;-76
2023/12/13 03:38:36;;;;;;;62.40;46.60;;;;;;;4.21;100.00;99198.69;109298;1271;22063;-77
2023/12/13 03:41:16;;;;;;;57.20;43.90;;;;;;;4.21;100.00;99196.81;109218;1272;23654;-78
2023/12/13 03:43:59;;;;;;;56.10;46.60;;;;;;;4.20;100.00;99194.60;109199;1273;22928;-78
2023/12/13 03:46:41;;;;;;;56.00;44.60;;;;;;;4.20;100.00;99194.96;109110;1274;22265;-77
2023/12/13 03:49:22;;;;;;;54.20;42.40;;;;;;;4.21;100.00;99198.36;109345;1274;22768;-78
2023/12/13 03:52:07;;;;;;;54.00;43.60;;;;;;;4.21;100.00;99198.20;109302;1274;21985;-77
2023/12/13 03:54:47;;;;;;;51.90;39.50;;;;;;;4.20;100.00;99198.58;109664;1268;23601;-77
2023/12/13 03:57:27;;;;;;;54.30;42.80;;;;;;;4.21;100.00;99192.34;109662;1268;22658;-77
2023/12/13 04:00:03;;;;;;;53.60;45.80;;;;;;;4.20;100.00;99192.72;110262;1263;22036;-79
2023/12/13 04:02:44;;;;;;;54.80;44.80;;;;;;;4.21;100.00;99191.98;110900;1257;21966;-79
2023/12/13 04:05:14;;;;;;;;;;;;;;;4.21;100.00;99192.15;111121;1248;22363;-77
2023/12/13 04:07:47;;;;;;;52.50;41.20;;;;;;;4.08;100.00;99190.83;111332;1257;21969;-77
2023/12/13 04:10:20;;;;;;;51.00;40.10;;;;;;;4.04;100.00;99184.73;110551;1262;21994;-78
2023/12/13 04:12:50;;;;;;;57.90;43.00;;;;;;;4.02;100.00;99176.55;110390;1262;23693;-78
2023/12/13 04:15:20;;;;;;;63.30;53.20;;;;;;;4.02;100.00;99170.53;110709;1262;23151;-77
2023/12/13 04:17:53;;;;;;;58.30;44.90;;;;;;;4.02;100.00;99172.39;110708;1257;21979;-77
2023/12/13 04:20:26;;;;;;;50.60;43.00;;;;;;;4.01;100.00;99170.38;110432;1262;23033;-77
2023/12/13 04:22:57;;;;;;;45.90;40.90;;;;;;;4.01;100.00;99170.38;110423;1262;21974;-78
2023/12/13 04:25:29;;;;;;;60.80;44.00;;;;;;;4.00;100.00;99165.40;110476;1262;21952;-78
2023/12/13 04:28:06;;;;;;;54.60;42.70;;;;;;;4.00;100.00;99161.48;110692;1257;21982;-78
2023/12/13 04:30:38;;;;;;;51.20;42.50;;;;;;;3.99;100.00;99159.27;111012;1257;23790;-77
2023/12/13 04:33:11;;;;;;;54.30;42.90;;;;;;;3.99;100.00;99163.73;110954;1257;21959;-77
2023/12/13 04:35:47;;;;;;;45.80;39.20;;;;;;;4.00;100.00;99161.28;111202;1257;23024;-77
2023/12/13 04:38:20;;;;;;;47.40;39.20;;;;;;;4.01;100.00;99161.93;111074;1257;21972;-76
2023/12/13 04:40:55;;;;;;;49.60;40.20;;;;;;;4.02;100.00;99162.08;111160;1257;22013;-76
2023/12/13 04:43:28;;;;;;;53.10;40.70;;;;;;;4.03;100.00;99161.88;110534;1263;21969;-77
2023/12/13 04:46:06;;;;;;;44.10;37.10;;;;;;;4.01;100.00;99159.17;110250;1263;21977;-78
2023/12/13 04:48:44;;;;;;;51.40;41.00;;;;;;;3.99;100.00;99150.28;110570;1263;22836;-79
2023/12/13 04:51:36;;;;;;;45.60;40.30;;;;;;;3.99;100.00;99142.73;110553;1263;21983;-77
2023/12/13 04:54:25;;;;;;;49.90;41.50;;;;;;;3.96;100.00;99139.19;110197;1263;21974;-79
2023/12/13 04:57:02;;;;;;;52.50;40.40;;;;;;;3.96;100.00;99136.95;110177;1263;24457;-78
2023/12/13 04:59:46;;;;;;;;;;;;;;;;;;;;;
2023/12/13 05:02:30;;;;;;;54.70;40.60;;;;;;;3.97;100.00;99140.90;109403;1272;22863;-77
2023/12/13 05:05:17;;;;;;;50.10;40.80;;;;;;;3.96;100.00;99142.81;109050;1276;21989;-77
2023/12/13 05:08:09;;;;;;;49.20;41.30;;;;;;;3.97;100.00;99143.64;109209;1272;21978;-76
2023/12/13 05:10:54;;;;;;;56.60;44.60;;;;;;;3.94;100.00;99131.85;109177;1272;23864;-77
2023/12/13 05:13:37;;;;;;;58.70;45.60;;;;;;;3.98;100.00;99134.65;109438;1272;23083;-77
2023/12/13 05:16:24;;;;;;;60.80;46.00;;;;;;;4.00;100.00;99132.00;109073;1276;22944;-77
2023/12/13 05:20:14;;;;;;;60.10;46.70;;;;;;;4.03;100.00;99133.49;109557;1272;22597;-77
2023/12/13 05:23:08;;;;;;;105.80;74.10;;;;;;;4.05;100.00;99131.36;109592;1269;23708;-78
2023/12/13 05:25:56;;;;;;;107.40;79.20;;;;;;;4.10;100.00;99129.80;109823;1270;23730;-78
2023/12/13 05:28:41;;;;;;;82.90;62.40;;;;;;;4.14;100.00;99127.95;109538;1270;21991;-77
2023/12/13 05:31:22;;;;;;;327.00;201.50;;;;;;;4.16;100.00;99126.19;109737;1270;24502;-80
2023/12/13 05:33:54;;;;;;;117.90;80.50;;;;;;;4.16;100.00;99121.38;110000;1264;22009;-78
2023/12/13 05:36:42;;;;;;;193.00;129.60;;;;;;;4.14;100.00;99116.79;110258;1264;21968;-79
2023/12/13 05:39:15;;;;;;;110.00;77.00;;;;;;;4.12;100.00;99113.40;110214;1264;21974;-78
2023/12/13 05:41:51;;;;;;;135.30;98.30;;;;;;;4.11;100.00;99112.56;110354;1264;21984;-77
2023/12/13 05:44:30;;;;;;;134.60;105.60;;;;;;;4.10;100.00;99111.41;109638;1269;21976;-78
2023/12/13 05:47:09;;;;;;;91.20;69.90;;;;;;;4.12;100.00;99103.74;109422;1273;23650;-78
2023/12/13 05:49:48;;;;;;;60.00;48.20;;;;;;;4.09;100.00;99098.52;109400;1273;23860;-78
2023/12/13 05:52:20;;;;;;;55.50;45.90;;;;;;;4.17;100.00;99107.74;108872;1280;21993;-79
2023/12/13 05:55:03;;;;;;;60.60;42.30;;;;;;;4.18;100.00;99104.94;108591;1285;23631;-79
2023/12/13 05:57:49;;;;;;;54.80;42.70;;;;;;;4.19;100.00;99100.10;108424;1286;22194;-78
2023/12/13 06:00:34;;;;;;;58.60;44.00;;;;;;;4.18;100.00;99101.34;108452;1282;21978;-77
2023/12/13 06:03:27;;;;;;;53.10;43.90;;;;;;;4.15;100.00;99097.98;108589;1282;22239;-77
2023/12/13 06:06:24;;;;;;;;;;;;;;;;;;;;;
2023/12/13 06:09:22;;;;;;;68.00;53.20;;;;;;;4.12;100.00;99097.90;109034;1277;22359;-78
2023/12/13 06:12:33;;;;;;;64.20;52.70;;;;;;;4.09;100.00;99097.65;109415;1267;21971;-78
2023/12/13 06:15:45;;;;;;;57.20;47.30;;;;;;;4.05;100.00;99091.91;109602;1268;22211;-77
2023/12/13 06:18:36;;;;;;;60.00;45.40;;;;;;;4.03;100.00;99089.05;109862;1268;21984;-78
2023/12/13 06:21:20;;;;;;;67.30;50.40;;;;;;;4.00;100.00;99091.04;109820;1267;23717;-77
2023/12/13 06:24:00;;;;;;;73.30;51.90;;;;;;;3.99;100.00;99086.77;110077;1268;21982;-79
2023/12/13 06:30:27;;;;;;;73.90;52.40;;;;;;;3.82;100.00;99070.08;108990;1278;22046;-77
2023/12/13 06:33:05;;;;;;;73.50;53.20;;;;;;;3.94;100.00;99088.64;108931;1277;22762;-79
2023/12/13 06:35:45;;;;;;;85.20;64.40;;;;;;;3.97;100.00;99092.15;108926;1277;23081;-77
2023/12/13 06:38:30;;;;;;;101.20;77.40;;;;;;;4.02;100.00;99085.98;108948;1273;21975;-78
2023/12/13 06:41:19;;;;;;;63.00;50.90;;;;;;;4.04;100.00;99085.40;109221;1273;21966;-80
2023/12/13 06:44:00;;;;;;;68.80;52.90;;;;;;;4.07;100.00;99086.52;109327;1273;22001;-77
2023/12/13 06:46:45;;;;;;;67.90;52.00;;;;;;;4.09;100.00;99080.95;109554;1268;22008;-77
2023/12/13 06:49:30;;;;;;;69.20;53.20;;;;;;;4.12;100.00;99083.11;109184;1271;22006;-79
2023/12/13 06:52:10;;;;;;;70.30;52.50;;;;;;;4.12;100.00;99084.48;109271;1273;21980;-77
2023/12/13 06:54:48;;;;;;;;;;;;;;;4.10;100.00;99087.45;109132;1273;22076;-77
2023/12/13 06:57:30;;;;;;;65.80;50.30;;;;;;;4.02;100.00;99091.48;109356;1271;22234;-78
2023/12/13 07:00:23;;;;;;;97.40;70.10;;;;;;;4.01;100.00;99095.66;109551;1266;21987;-78
2023/12/13 07:03:00;;;;;;;192.20;131.10;;;;;;;4.03;100.00;99094.58;110607;1261;23130;-78
2023/12/13 07:06:35;;;;;;;;;;;;;;;;;;;;;
2023/12/13 07:08:47;;;;;;;85.70;59.10;;;;;;;4.01;100.00;99087.23;111102;1257;21994;-77
2023/12/13 07:11:39;;;;;;;89.70;60.80;;;;;;;4.06;100.00;99085.88;110976;1257;21976;-78
2023/12/13 07:14:37;;;;;;;83.30;57.60;;;;;;;4.13;100.00;99090.13;110966;1257;22802;-78
2023/12/13 07:17:21;;;;;;;71.40;55.80;;;;;;;4.16;100.00;99087.63;110852;1257;21962;-79
2023/12/13 07:20:12;;;;;;;72.60;58.60;;;;;;;4.17;100.00;99086.22;111211;1256;22747;-78
2023/12/13 07:22:56;;;;;;;74.60;54.60;;;;;;;4.17;100.00;99087.05;111137;1257;22319;-77
2023/12/13 07:26:20;;;;;;;78.50;62.50;;;;;;;4.16;100.00;99082.27;110674;1261;23778;-78
2023/12/13 07:29:33;;;;;;;86.80;60.70;;;;;;;4.15;100.00;99084.37;109923;1264;24489;-79
2023/12/13 07:33:04;;;;;;;;;;;;;;;;;;;;;
2023/12/13 07:39:54;;;;;;;76.50;54.40;;;;;;;4.36;100.00;99091.79;109046;1276;22160;-78
2023/12/13 07:42:48;;;;;;;78.00;57.50;;;;;;;4.42;100.00;99086.27;109093;1276;21991;-77
2023/12/13 07:46:52;;;;;;;81.10;62.60;;;;;;;4.48;100.00;99086.91;109024;1273;24392;-75
2023/12/13 07:51:05;;;;;;;;;;;;;;;;;;;;;
2023/12/13 07:54:16;;;;;;;65.80;48.50;;;;;;;4.72;100.00;99085.27;110317;1267;22729;-78
2023/12/13 07:57:09;;;;;;;77.90;53.40;;;;;;;4.78;100.00;99087.33;110137;1267;21982;-76
2023/12/13 08:00:04;;;;;;;77.80;53.00;;;;;;;4.83;100.00;99083.53;110094;1268;24321;-77
2023/12/13 08:02:58;;;;;;;76.80;58.90;;;;;;;4.88;100.00;99081.95;109944;1268;22738;-76
2023/12/13 08:05:36;;;;;;;77.90;55.40;;;;;;;4.92;100.00;99086.14;109930;1268;21983;-75
2023/12/13 08:08:16;;;;;;;88.50;58.50;;;;;;;4.92;100.00;99086.66;110134;1261;23644;-75
2023/12/13 08:10:52;;;;;;;80.50;54.00;;;;;;;4.93;100.00;99087.29;109750;1268;23791;-75
2023/12/13 08:13:28;;;;;;;73.60;54.20;;;;;;;4.95;100.00;99082.05;109282;1273;21993;-74
2023/12/13 08:16:12;;;;;;;63.20;51.10;;;;;;;4.92;100.00;99082.34;109320;1272;21991;-73
2023/12/13 08:18:44;;;;;;;67.10;53.20;;;;;;;4.92;100.00;99088.19;109734;1268;23705;-75
2023/12/13 08:21:16;;;;;;;85.90;66.70;;;;;;;4.95;100.00;99087.58;109016;1273;21979;-75
2023/12/13 08:23:51;;;;;;;67.50;56.80;;;;;;;4.98;100.00;99083.33;109164;1273;22012;-75
2023/12/13 08:26:31;;;;;;;68.80;53.50;;;;;;;5.01;100.00;99073.58;109159;1273;23641;-75
2023/12/13 08:29:04;;;;;;;67.20;50.70;;;;;;;5.05;100.00;99069.64;109116;1273;23770;-75
2023/12/13 08:31:41;;;;;;;65.00;50.30;;;;;;;5.05;100.00;99064.10;109132;1273;22027;-75
2023/12/13 08:34:16;;;;;;;78.60;58.00;;;;;;;5.09;100.00;99070.71;109400;1270;21983;-75
2023/12/13 08:36:54;;;;;;;97.20;66.70;;;;;;;5.10;100.00;99074.99;109048;1276;22004;-76
2023/12/13 08:39:52;;;;;;;89.40;67.10;;;;;;;5.07;100.00;99077.13;109929;1263;23025;-74
2023/12/13 08:42:35;;;;;;;81.00;58.10;;;;;;;5.07;100.00;99078.18;110506;1263;22158;-76
2023/12/13 08:45:18;;;;;;;83.50;61.10;;;;;;;5.09;100.00;99075.70;110346;1263;22026;-75
2023/12/13 08:47:54;;;;;;;87.40;64.70;;;;;;;5.10;100.00;99077.73;109653;1269;23057;-77
2023/12/13 08:50:26;;;;;;;79.70;61.70;;;;;;;5.14;100.00;99079.66;109582;1270;21990;-78
2023/12/13 08:52:56;;;;;;;85.50;66.80;;;;;;;5.19;100.00;99079.15;109111;1274;23002;-78
2023/12/13 08:55:39;;;;;;;83.70;67.50;;;;;;;5.16;100.00;99066.48;109689;1269;21990;-75
2023/12/13 08:58:11;;;;;;;76.00;59.60;;;;;;;5.22;100.00;99074.58;109985;1269;22093;-78
2023/12/13 09:00:47;;;;;;;64.50;53.40;;;;;;;5.19;100.00;99075.51;109976;1269;21990;-76
2023/12/13 09:03:23;;;;;;;69.60;51.90;;;;;;;5.15;100.00;99070.49;109903;1268;21974;-76
2023/12/13 09:05:58;;;;;;;64.00;53.80;;;;;;;5.12;100.00;99065.93;109522;1267;21999;-77
2023/12/13 09:08:30;;;;;;;63.20;53.50;;;;;;;5.08;100.00;99061.27;109950;1267;22003;-77
2023/12/13 09:11:00;;;;;;;71.20;57.30;;;;;;;5.02;100.00;99058.52;109579;1269;23653;-78
2023/12/13 09:13:35;;;;;;;65.10;53.20;;;;;;;4.99;100.00;99055.54;109968;1269;23649;-75
2023/12/13 09:16:08;;;;;;;102.90;74.00;;;;;;;5.01;100.00;99053.23;109794;1269;22721;-77
2023/12/13 09:18:49;;;;;;;87.70;65.60;;;;;;;5.06;100.00;99056.66;109589;1269;21989;-78
2023/12/13 09:21:26;;;;;;;68.90;56.40;;;;;;;5.13;100.00;99052.62;109148;1273;23062;-77
2023/12/13 09:23:58;;;;;;;;;;;;;;;5.18;100.00;99055.56;109590;1268;22452;-77
2023/12/13 09:26:32;;;;;;;68.70;53.10;;;;;;;5.09;100.00;99057.25;109759;1268;21992;-78
2023/12/13 09:29:08;;;;;;;73.70;56.10;;;;;;;5.05;100.00;99055.33;109993;1261;22522;-77
2023/12/13 09:31:45;;;;;;;72.50;56.40;;;;;;;5.06;100.00;99058.39;110697;1261;22011;-76
2023/12/13 09:34:21;;;;;;;66.40;53.60;;;;;;;5.07;100.00;99059.05;110755;1261;23709;-78
2023/12/13 09:37:02;;;;;;;72.60;57.80;;;;;;;5.09;100.00;99055.69;110616;1261;22001;-78
2023/12/13 09:39:35;;;;;;;74.20;59.00;;;;;;;5.14;100.00;99050.35;110730;1260;23110;-75
2023/12/13 09:42:14;;;;;;;69.20;56.70;;;;;;;5.23;100.00;99047.98;110799;1260;22872;-76
2023/12/13 09:44:48;;;;;;;80.60;66.70;;;;;;;5.26;100.00;99042.99;110669;1260;21985;-75
2023/12/13 09:47:25;;;;;;;71.50;60.40;;;;;;;5.25;100.00;99042.02;110911;1256;21968;-76
2023/12/13 09:50:01;;;;;;;67.90;59.90;;;;;;;5.24;100.00;99042.23;111096;1256;21963;-76
2023/12/13 09:52:35;;;;;;;76.00;65.90;;;;;;;5.25;100.00;99042.22;110415;1261;21966;-76
2023/12/13 09:55:20;;;;;;;78.20;61.90;;;;;;;5.26;100.00;99044.55;110563;1261;22825;-76
2023/12/13 09:57:59;;;;;;;77.40;61.30;;;;;;;5.25;100.00;99041.31;110720;1261;23773;-76
2023/12/13 10:00:35;;;;;;;83.10;66.70;;;;;;;5.24;100.00;99039.28;110217;1267;23707;-77
2023/12/13 10:03:08;;;;;;;79.30;62.60;;;;;;;5.28;100.00;99034.48;109209;1273;22228;-75
2023/12/13 10:05:41;;;;;;;69.80;59.50;;;;;;;5.31;100.00;99032.65;109412;1273;23660;-75
2023/12/13 10:08:19;;;;;;;69.10;57.70;;;;;;;5.32;100.00;99032.95;109422;1273;21991;-76
2023/12/13 10:11:08;;;;;;;74.10;60.00;;;;;;;5.29;100.00;99032.39;109676;1269;23717;-78
2023/12/13 10:13:54;;;;;;;65.30;53.20;;;;;;;5.29;100.00;99028.77;109785;1270;21982;-80
2023/12/13 10:16:58;;;;;;;69.70;53.80;;;;;;;5.30;100.00;99028.39;109233;1276;22217;-78
2023/12/13 10:19:53;;;;;;;66.30;51.70;;;;;;;5.36;100.00;99027.48;108958;1271;21992;-80
2023/12/13 10:22:30;;;;;;;66.20;50.90;;;;;;;5.45;100.00;99022.99;109725;1270;22048;-77
2023/12/13 10:25:15;;;;;;;61.90;51.20;;;;;;;5.54;100.00;99015.05;109933;1262;22023;-77
2023/12/13 10:28:07;;;;;;;64.10;50.60;;;;;;;5.66;100.00;99006.63;110514;1262;21993;-81
2023/12/13 10:30:49;;;;;;;63.40;49.30;;;;;;;5.74;100.00;99004.94;111241;1261;21954;-81
2023/12/13 10:33:24;;;;;;;61.80;50.00;;;;;;;5.76;100.00;99004.36;110563;1262;23027;-76
2023/12/13 10:35:56;;;;;;;60.90;48.60;;;;;;;5.80;100.00;98999.69;110383;1263;22451;-78
2023/12/13 10:38:54;;;;;;;72.10;53.40;;;;;;;5.87;100.00;98999.95;110022;1268;23658;-76
2023/12/13 10:41:30;;;;;;;57.20;48.60;;;;;;;5.95;100.00;98994.98;109886;1257;23879;-81
2023/12/13 10:44:02;;;;;;;60.50;50.50;;;;;;;5.99;100.00;98990.68;110191;1267;22054;-80
2023/12/13 10:46:46;;;;;;;60.70;51.50;;;;;;;5.97;100.00;98993.52;109967;1264;24365;-76
2023/12/13 10:49:21;;;;;;;60.40;48.60;;;;;;;5.94;100.00;98989.99;110032;1268;22918;-79
2023/12/13 10:51:58;;;;;;;56.80;47.80;;;;;;;5.97;100.00;98987.84;109845;1268;21991;-79
2023/12/13 10:54:32;;;;;;;54.70;48.80;;;;;;;5.96;100.00;98991.48;110021;1269;21989;-80
2023/12/13 10:57:06;;;;;;;59.50;49.00;;;;;;;5.94;100.00;98992.10;110364;1263;23059;-79
2023/12/13 10:59:43;;;;;;;53.00;44.20;;;;;;;5.90;100.00;98992.05;110559;1263;23045;-80
2023/12/13 11:02:19;;;;;;;54.20;45.90;;;;;;;5.84;100.00;98985.74;111269;1251;23796;-81
2023/12/13 11:04:52;;;;;;;53.20;44.40;;;;;;;5.85;100.00;98986.05;111231;1254;23039;-81
2023/12/13 11:07:26;;;;;;;69.40;52.70;;;;;;;5.82;100.00;98982.02;111231;1250;23033;-79
2023/12/13 11:10:03;;;;;;;58.30;46.40;;;;;;;5.81;100.00;98982.40;110897;1261;22057;-79
2023/12/13 11:12:54;;;;;;;52.00;44.10;;;;;;;5.80;100.00;98976.55;110675;1255;22316;-80
2023/12/13 11:15:29;;;;;;;61.30;49.90;;;;;;;5.79;100.00;98969.54;110838;1262;22456;-78
2023/12/13 11:18:04;;;;;;;55.60;45.50;;;;;;;5.82;100.00;98964.94;110458;1262;22974;-77
2023/12/13 11:20:54;;;;;;;59.50;46.50;;;;;;;5.87;100.00;98964.04;110454;1262;21976;-77
2023/12/13 11:23:26;;;;;;;59.70;44.60;;;;;;;5.94;100.00;98963.43;110746;1262;21956;-77
2023/12/13 11:26:03;;;;;;;66.00;44.80;;;;;;;6.02;100.00;98960.50;110414;1262;22998;-76
2023/12/13 11:28:48;;;;;;;57.90;43.50;;;;;;;6.07;100.00;98956.88;110901;1256;22153;-73
2023/12/13 11:31:34;;;;;;;52.70;43.20;;;;;;;6.16;100.00;98955.11;110877;1257;23612;-73
2023/12/13 11:34:07;;;;;;;53.60;43.20;;;;;;;6.24;100.00;98952.52;110669;1257;21975;-71
2023/12/13 11:36:39;;;;;;;53.40;42.60;;;;;;;6.27;100.00;98948.06;110384;1262;23593;-72
2023/12/13 11:39:15;;;;;;;50.90;42.20;;;;;;;6.29;100.00;98950.41;110456;1261;22028;-73
2023/12/13 11:41:51;;;;;;;48.30;43.00;;;;;;;6.27;100.00;98956.91;109883;1267;21995;-73
2023/12/13 11:44:29;;;;;;;61.20;48.30;;;;;;;6.27;100.00;98952.23;110102;1267;21991;-73
2023/12/13 11:47:15;;;;;;;52.30;43.50;;;;;;;6.24;100.00;98952.67;109794;1267;22091;-71
2023/12/13 11:49:50;;;;;;;56.80;44.90;;;;;;;6.24;100.00;98953.73;110042;1267;23031;-73
2023/12/13 11:52:22;;;;;;;;;;;;;;;6.26;100.00;98959.69;110160;1265;21991;-75
2023/12/13 11:55:00;;;;;;;63.80;49.90;;;;;;;6.20;100.00;98960.29;110232;1263;22052;-75
2023/12/13 11:57:43;;;;;;;59.90;50.30;;;;;;;6.22;100.00;98962.27;109985;1269;22087;-74
2023/12/13 12:00:20;;;;;;;55.60;44.70;;;;;;;6.24;100.00;98958.92;110047;1251;21989;-74
2023/12/13 12:02:54;;;;;;;50.40;42.40;;;;;;;6.25;100.00;98962.31;110249;1265;22115;-74
2023/12/13 12:05:24;;;;;;;48.30;41.50;;;;;;;6.21;100.00;98969.73;110092;1265;21994;-74
2023/12/13 12:08:07;;;;;;;57.30;47.10;;;;;;;6.12;100.00;98966.15;110293;1265;21994;-72
2023/12/13 12:10:36;;;;;;;50.10;44.50;;;;;;;6.09;100.00;98964.23;110249;1265;22899;-72
2023/12/13 12:13:09;;;;;;;56.40;45.40;;;;;;;6.08;100.00;98963.04;110117;1257;21973;-75
2023/12/13 12:15:43;;;;;;;55.70;46.10;;;;;;;6.04;100.00;98964.42;110380;1261;22070;-75
2023/12/13 12:18:13;;;;;;;54.70;44.60;;;;;;;6.14;100.00;98966.59;110714;1261;22506;-79
2023/12/13 12:20:46;;;;;;;51.80;43.40;;;;;;;6.25;100.00;98972.36;110797;1256;21954;-78
2023/12/13 12:23:18;;;;;;;53.60;44.60;;;;;;;6.27;100.00;98970.85;111014;1256;21961;-77
2023/12/13 12:25:53;;;;;;;53.00;45.40;;;;;;;6.28;100.00;98967.58;111091;1256;21936;-78
2023/12/13 12:28:26;;;;;;;54.70;46.00;;;;;;;6.28;100.00;98967.39;110527;1262;22046;-79
2023/12/13 12:30:56;;;;;;;47.90;42.60;;;;;;;6.24;100.00;98967.90;110549;1262;22026;-78
2023/12/13 12:33:29;;;;;;;51.90;45.10;;;;;;;6.19;100.00;98972.95;110466;1262;23024;-78
2023/12/13 12:36:00;;;;;;;57.60;47.50;;;;;;;6.12;100.00;98977.05;110621;1262;23134;-78
2023/12/13 12:38:30;;;;;;;50.30;44.40;;;;;;;6.07;100.00;98972.73;110017;1268;23799;-79
2023/12/13 12:40:59;;;;;;;54.10;45.00;;;;;;;6.05;100.00;98969.71;109580;1269;21992;-78
2023/12/13 12:43:29;;;;;;;52.50;46.80;;;;;;;6.02;100.00;98962.98;109659;1269;22004;-78
2023/12/13 12:45:59;;;;;;;52.40;44.70;;;;;;;6.00;100.00;98962.14;109863;1262;21993;-78
2023/12/13 12:48:29;;;;;;;51.00;43.90;;;;;;;6.00;100.00;98955.77;110330;1262;22004;-77
2023/12/13 12:50:59;;;;;;;49.40;42.80;;;;;;;5.98;100.00;98950.83;109523;1269;21978;-77
2023/12/13 12:53:31;;;;;;;51.90;44.10;;;;;;;5.95;100.00;98946.95;109665;1269;22111;-79
2023/12/13 12:56:03;;;;;;;58.00;46.90;;;;;;;5.93;100.00;98948.96;109910;1263;21988;-77
2023/12/13 12:58:39;;;;;;;52.20;45.70;;;;;;;5.91;100.00;98948.52;110714;1263;22335;-79
2023/12/13 13:01:15;;;;;;;53.50;45.30;;;;;;;5.92;100.00;98950.04;110554;1263;22148;-76
2023/12/13 13:03:52;;;;;;;49.40;44.10;;;;;;;5.92;100.00;98955.23;110631;1263;23662;-79
2023/12/13 13:06:25;;;;;;;49.80;43.00;;;;;;;5.85;100.00;98956.67;110054;1268;23827;-78
2023/12/13 13:09:00;;;;;;;48.80;43.50;;;;;;;5.77;100.00;98960.66;109470;1268;22902;-78
2023/12/13 13:11:36;;;;;;;53.40;44.40;;;;;;;5.70;100.00;98966.61;110019;1261;23722;-81
2023/12/13 13:14:07;;;;;;;52.50;45.60;;;;;;;5.62;100.00;98963.46;110004;1266;23062;-78